<?xml version="1.0" encoding="UTF-8" standalone="no" ?>
<gpx xmlns="http://www.topografix.com/GPX/1/1" xmlns:xsi="http://www.w3.org/2001/XMLSchema-instance" xsi:schemaLocation="http://www.topografix.com/GPX/1/1 http://www.topografix.com/GPX/1/1/gpx.xsd" version="1.1" creator="VisuGPX - https://www.visugpx.com">
  <metadata>
    <name>Suède</name>
  </metadata>
  <trk>
    <name><![CDATA[Tour d'Europe: étape 096]]></name>
    <trkseg>
      <trkpt lat="63.57458" lon="19.45701">
        <ele>30.544807</ele>
        <time>2020-10-02T08:06:27.584Z</time>
      </trkpt>
      <trkpt lat="63.57597" lon="19.45928">
        <ele>31.811516</ele>
        <time>2020-10-02T08:08:43.594Z</time>
      </trkpt>
      <trkpt lat="63.57703" lon="19.45604">
        <ele>39.056891</ele>
        <time>2020-10-02T08:09:46.576Z</time>
      </trkpt>
      <trkpt lat="63.57843" lon="19.45276">
        <ele>44.494643</ele>
        <time>2020-10-02T08:11:04.613Z</time>
      </trkpt>
      <trkpt lat="63.58003" lon="19.45058">
        <ele>42.584408</ele>
        <time>2020-10-02T08:12:13.581Z</time>
      </trkpt>
      <trkpt lat="63.58129" lon="19.44746">
        <ele>42.984002</ele>
        <time>2020-10-02T08:13:15.560Z</time>
      </trkpt>
      <trkpt lat="63.58155" lon="19.44368">
        <ele>38.730718</ele>
        <time>2020-10-02T08:14:23.562Z</time>
      </trkpt>
      <trkpt lat="63.58004" lon="19.4403">
        <ele>36.667183</ele>
        <time>2020-10-02T08:15:10.603Z</time>
      </trkpt>
      <trkpt lat="63.57837" lon="19.43652">
        <ele>30.367521</ele>
        <time>2020-10-02T08:15:50.567Z</time>
      </trkpt>
      <trkpt lat="63.57645" lon="19.43336">
        <ele>29.360287</ele>
        <time>2020-10-02T08:16:30.579Z</time>
      </trkpt>
      <trkpt lat="63.57427" lon="19.43092">
        <ele>27.713126</ele>
        <time>2020-10-02T08:17:10.583Z</time>
      </trkpt>
      <trkpt lat="63.57236" lon="19.42786">
        <ele>28.084288</ele>
        <time>2020-10-02T08:17:50.602Z</time>
      </trkpt>
      <trkpt lat="63.57055" lon="19.42551">
        <ele>35.068904</ele>
        <time>2020-10-02T08:18:30.568Z</time>
      </trkpt>
      <trkpt lat="63.5686" lon="19.42343">
        <ele>45.811289</ele>
        <time>2020-10-02T08:19:26.584Z</time>
      </trkpt>
      <trkpt lat="63.56647" lon="19.41988">
        <ele>38.951419</ele>
        <time>2020-10-02T08:20:06.591Z</time>
      </trkpt>
      <trkpt lat="63.56493" lon="19.41637">
        <ele>27.025128</ele>
        <time>2020-10-02T08:20:46.581Z</time>
      </trkpt>
      <trkpt lat="63.5635" lon="19.41309">
        <ele>27.267488</ele>
        <time>2020-10-02T08:21:26.567Z</time>
      </trkpt>
      <trkpt lat="63.56177" lon="19.41094">
        <ele>29.339703</ele>
        <time>2020-10-02T08:22:06.567Z</time>
      </trkpt>
      <trkpt lat="63.56024" lon="19.40816">
        <ele>27.57958</ele>
        <time>2020-10-02T08:22:46.571Z</time>
      </trkpt>
      <trkpt lat="63.5588" lon="19.4048">
        <ele>30.593618</ele>
        <time>2020-10-02T08:23:31.578Z</time>
      </trkpt>
      <trkpt lat="63.55751" lon="19.40178">
        <ele>32.453429</ele>
        <time>2020-10-02T08:24:11.589Z</time>
      </trkpt>
      <trkpt lat="63.55594" lon="19.39858">
        <ele>39.343676</ele>
        <time>2020-10-02T08:25:14.579Z</time>
      </trkpt>
      <trkpt lat="63.5541" lon="19.39641">
        <ele>41.543504</ele>
        <time>2020-10-02T08:26:01.570Z</time>
      </trkpt>
      <trkpt lat="63.55188" lon="19.39394">
        <ele>33.959883</ele>
        <time>2020-10-02T08:26:41.584Z</time>
      </trkpt>
      <trkpt lat="63.55015" lon="19.3904">
        <ele>33.769334</ele>
        <time>2020-10-02T08:27:30.567Z</time>
      </trkpt>
      <trkpt lat="63.549" lon="19.38627">
        <ele>36.889434</ele>
        <time>2020-10-02T08:28:28.560Z</time>
      </trkpt>
      <trkpt lat="63.54849" lon="19.38185">
        <ele>34.901645</ele>
        <time>2020-10-02T08:29:12.558Z</time>
      </trkpt>
      <trkpt lat="63.54774" lon="19.37654">
        <ele>38.326699</ele>
        <time>2020-10-02T08:30:09.567Z</time>
      </trkpt>
      <trkpt lat="63.54623" lon="19.37352">
        <ele>38.007888</ele>
        <time>2020-10-02T08:30:51.564Z</time>
      </trkpt>
      <trkpt lat="63.54442" lon="19.37165">
        <ele>36.213648</ele>
        <time>2020-10-02T08:31:31.565Z</time>
      </trkpt>
      <trkpt lat="63.54246" lon="19.37033">
        <ele>33.570271</ele>
        <time>2020-10-02T08:32:11.617Z</time>
      </trkpt>
      <trkpt lat="63.54055" lon="19.36906">
        <ele>32.874426</ele>
        <time>2020-10-02T08:32:51.586Z</time>
      </trkpt>
      <trkpt lat="63.53866" lon="19.36779">
        <ele>33.325586</ele>
        <time>2020-10-02T08:33:32.577Z</time>
      </trkpt>
      <trkpt lat="63.53669" lon="19.36653">
        <ele>33.612535</ele>
        <time>2020-10-02T08:34:12.578Z</time>
      </trkpt>
      <trkpt lat="63.53474" lon="19.36575">
        <ele>35.073765</ele>
        <time>2020-10-02T08:34:52.576Z</time>
      </trkpt>
      <trkpt lat="63.53276" lon="19.36581">
        <ele>37.939014</ele>
        <time>2020-10-02T08:35:32.577Z</time>
      </trkpt>
      <trkpt lat="63.53067" lon="19.36572">
        <ele>38.74915</ele>
        <time>2020-10-02T08:36:14.565Z</time>
      </trkpt>
      <trkpt lat="63.5286" lon="19.36415">
        <ele>42.343352</ele>
        <time>2020-10-02T08:37:05.581Z</time>
      </trkpt>
      <trkpt lat="63.52664" lon="19.36211">
        <ele>45.901745</ele>
        <time>2020-10-02T08:38:05.589Z</time>
      </trkpt>
      <trkpt lat="63.52454" lon="19.36074">
        <ele>40.972139</ele>
        <time>2020-10-02T08:38:59.590Z</time>
      </trkpt>
      <trkpt lat="63.52244" lon="19.36037">
        <ele>36.768922</ele>
        <time>2020-10-02T08:39:41.578Z</time>
      </trkpt>
      <trkpt lat="63.52037" lon="19.35998">
        <ele>37.981155</ele>
        <time>2020-10-02T08:40:21.564Z</time>
      </trkpt>
      <trkpt lat="63.51848" lon="19.35812">
        <ele>42.33017</ele>
        <time>2020-10-02T08:41:03.605Z</time>
      </trkpt>
      <trkpt lat="63.51704" lon="19.35513">
        <ele>39.303007</ele>
        <time>2020-10-02T08:41:44.603Z</time>
      </trkpt>
      <trkpt lat="63.51621" lon="19.35111">
        <ele>40.782565</ele>
        <time>2020-10-02T08:42:24.585Z</time>
      </trkpt>
      <trkpt lat="63.51512" lon="19.3473">
        <ele>39.033484</ele>
        <time>2020-10-02T08:43:04.576Z</time>
      </trkpt>
      <trkpt lat="63.5135" lon="19.34476">
        <ele>37.081326</ele>
        <time>2020-10-02T08:43:44.561Z</time>
      </trkpt>
      <trkpt lat="63.51172" lon="19.34186">
        <ele>32.443779</ele>
        <time>2020-10-02T08:44:24.579Z</time>
      </trkpt>
      <trkpt lat="63.51016" lon="19.33874">
        <ele>34.000387</ele>
        <time>2020-10-02T08:45:04.581Z</time>
      </trkpt>
      <trkpt lat="63.50851" lon="19.33528">
        <ele>41.108254</ele>
        <time>2020-10-02T08:45:56.623Z</time>
      </trkpt>
      <trkpt lat="63.5073" lon="19.33154">
        <ele>47.241065</ele>
        <time>2020-10-02T08:46:59.570Z</time>
      </trkpt>
      <trkpt lat="63.50542" lon="19.33031">
        <ele>48.382794</ele>
        <time>2020-10-02T08:47:45.581Z</time>
      </trkpt>
      <trkpt lat="63.50323" lon="19.32979">
        <ele>45.500151</ele>
        <time>2020-10-02T08:48:25.583Z</time>
      </trkpt>
      <trkpt lat="63.50082" lon="19.32613">
        <ele>32.449691</ele>
        <time>2020-10-02T08:49:05.627Z</time>
      </trkpt>
      <trkpt lat="63.49911" lon="19.32272">
        <ele>32.883824</ele>
        <time>2020-10-02T08:49:49.571Z</time>
      </trkpt>
      <trkpt lat="63.49733" lon="19.32023">
        <ele>42.583905</ele>
        <time>2020-10-02T08:50:52.580Z</time>
      </trkpt>
      <trkpt lat="63.4953" lon="19.31957">
        <ele>44.787108</ele>
        <time>2020-10-02T08:51:59.579Z</time>
      </trkpt>
      <trkpt lat="63.49329" lon="19.31801">
        <ele>48.087172</ele>
        <time>2020-10-02T08:52:54.568Z</time>
      </trkpt>
      <trkpt lat="63.4917" lon="19.31555">
        <ele>53.088413</ele>
        <time>2020-10-02T08:53:55.579Z</time>
      </trkpt>
      <trkpt lat="63.48994" lon="19.31283">
        <ele>54.220226</ele>
        <time>2020-10-02T08:54:48.574Z</time>
      </trkpt>
      <trkpt lat="63.48812" lon="19.30988">
        <ele>50.124569</ele>
        <time>2020-10-02T08:55:28.590Z</time>
      </trkpt>
      <trkpt lat="63.48631" lon="19.30666">
        <ele>46.777577</ele>
        <time>2020-10-02T08:56:08.586Z</time>
      </trkpt>
      <trkpt lat="63.48386" lon="19.30198">
        <ele>40.090224</ele>
        <time>2020-10-02T08:56:48.583Z</time>
      </trkpt>
      <trkpt lat="63.48187" lon="19.29837">
        <ele>40.119926</ele>
        <time>2020-10-02T08:57:28.617Z</time>
      </trkpt>
      <trkpt lat="63.47981" lon="19.29492">
        <ele>40.065576</ele>
        <time>2020-10-02T08:58:08.579Z</time>
      </trkpt>
      <trkpt lat="63.47753" lon="19.29148">
        <ele>38.554324</ele>
        <time>2020-10-02T08:58:50.585Z</time>
      </trkpt>
      <trkpt lat="63.47568" lon="19.28892">
        <ele>41.602985</ele>
        <time>2020-10-02T08:59:30.599Z</time>
      </trkpt>
      <trkpt lat="63.47389" lon="19.28634">
        <ele>42.625291</ele>
        <time>2020-10-02T09:00:10.582Z</time>
      </trkpt>
      <trkpt lat="63.47203" lon="19.28298">
        <ele>41.031677</ele>
        <time>2020-10-02T09:00:50.603Z</time>
      </trkpt>
      <trkpt lat="63.47041" lon="19.27918">
        <ele>41.884832</ele>
        <time>2020-10-02T09:01:30.583Z</time>
      </trkpt>
      <trkpt lat="63.46908" lon="19.27584">
        <ele>43.805138</ele>
        <time>2020-10-02T09:02:10.621Z</time>
      </trkpt>
      <trkpt lat="63.46745" lon="19.27221">
        <ele>51.153185</ele>
        <time>2020-10-02T09:03:06.604Z</time>
      </trkpt>
      <trkpt lat="63.46571" lon="19.26888">
        <ele>53.452475</ele>
        <time>2020-10-02T09:03:56.586Z</time>
      </trkpt>
      <trkpt lat="63.46376" lon="19.26468">
        <ele>39.762634</ele>
        <time>2020-10-02T09:04:36.610Z</time>
      </trkpt>
      <trkpt lat="63.46513" lon="19.26076">
        <ele>39.092418</ele>
        <time>2020-10-02T09:05:18.589Z</time>
      </trkpt>
      <trkpt lat="63.46671" lon="19.25693">
        <ele>47.005931</ele>
        <time>2020-10-02T09:06:14.619Z</time>
      </trkpt>
      <trkpt lat="63.46848" lon="19.25455">
        <ele>61.94465</ele>
        <time>2020-10-02T09:07:18.567Z</time>
      </trkpt>
      <trkpt lat="63.47028" lon="19.25232">
        <ele>65.466391</ele>
        <time>2020-10-02T09:08:30.581Z</time>
      </trkpt>
      <trkpt lat="63.47231" lon="19.24978">
        <ele>64.162339</ele>
        <time>2020-10-02T09:09:30.608Z</time>
      </trkpt>
      <trkpt lat="63.47433" lon="19.24718">
        <ele>68.282263</ele>
        <time>2020-10-02T09:10:29.593Z</time>
      </trkpt>
      <trkpt lat="63.47538" lon="19.24374">
        <ele>61.621305</ele>
        <time>2020-10-02T09:11:09.596Z</time>
      </trkpt>
      <trkpt lat="63.47547" lon="19.23911">
        <ele>57.952637</ele>
        <time>2020-10-02T09:11:55.596Z</time>
      </trkpt>
      <trkpt lat="63.47526" lon="19.23408">
        <ele>61.648776</ele>
        <time>2020-10-02T09:12:45.588Z</time>
      </trkpt>
      <trkpt lat="63.47579" lon="19.22971">
        <ele>70.372827</ele>
        <time>2020-10-02T09:13:53.586Z</time>
      </trkpt>
      <trkpt lat="63.47673" lon="19.22581">
        <ele>78.452004</ele>
        <time>2020-10-02T09:15:33.582Z</time>
      </trkpt>
      <trkpt lat="63.47812" lon="19.22272">
        <ele>87.317577</ele>
        <time>2020-10-02T09:17:16.585Z</time>
      </trkpt>
      <trkpt lat="63.47942" lon="19.21948">
        <ele>99.191913</ele>
        <time>2020-10-02T09:19:00.587Z</time>
      </trkpt>
      <trkpt lat="63.48042" lon="19.21576">
        <ele>115.594357</ele>
        <time>2020-10-02T09:20:46.579Z</time>
      </trkpt>
      <trkpt lat="63.48104" lon="19.21164">
        <ele>122.662788</ele>
        <time>2020-10-02T09:22:27.627Z</time>
      </trkpt>
      <trkpt lat="63.48221" lon="19.20771">
        <ele>119.663107</ele>
        <time>2020-10-02T09:23:24.598Z</time>
      </trkpt>
      <trkpt lat="63.48349" lon="19.2041">
        <ele>120.580247</ele>
        <time>2020-10-02T09:24:04.594Z</time>
      </trkpt>
      <trkpt lat="63.48455" lon="19.19978">
        <ele>121.32745</ele>
        <time>2020-10-02T09:24:51.604Z</time>
      </trkpt>
      <trkpt lat="63.48526" lon="19.19523">
        <ele>123.774897</ele>
        <time>2020-10-02T09:26:05.573Z</time>
      </trkpt>
      <trkpt lat="63.48473" lon="19.19107">
        <ele>114.770908</ele>
        <time>2020-10-02T09:26:55.590Z</time>
      </trkpt>
      <trkpt lat="63.48241" lon="19.18813">
        <ele>103.413712</ele>
        <time>2020-10-02T09:27:27.583Z</time>
      </trkpt>
      <trkpt lat="63.4832" lon="19.18357">
        <ele>106.513551</ele>
        <time>2020-10-02T09:28:24.587Z</time>
      </trkpt>
      <trkpt lat="63.48414" lon="19.17926">
        <ele>110.08446</ele>
        <time>2020-10-02T09:29:26.582Z</time>
      </trkpt>
      <trkpt lat="63.48407" lon="19.17477">
        <ele>118.163893</ele>
        <time>2020-10-02T09:30:55.582Z</time>
      </trkpt>
      <trkpt lat="63.48349" lon="19.17043">
        <ele>120.797686</ele>
        <time>2020-10-02T09:32:03.581Z</time>
      </trkpt>
      <trkpt lat="63.4825" lon="19.16604">
        <ele>122.528736</ele>
        <time>2020-10-02T09:32:53.583Z</time>
      </trkpt>
      <trkpt lat="63.48065" lon="19.16426">
        <ele>128.492585</ele>
        <time>2020-10-02T09:34:01.594Z</time>
      </trkpt>
      <trkpt lat="63.47879" lon="19.16242">
        <ele>134.081892</ele>
        <time>2020-10-02T09:35:12.613Z</time>
      </trkpt>
      <trkpt lat="63.47686" lon="19.16008">
        <ele>133.39886</ele>
        <time>2020-10-02T09:36:14.589Z</time>
      </trkpt>
      <trkpt lat="63.47518" lon="19.1565">
        <ele>129.800744</ele>
        <time>2020-10-02T09:37:09.580Z</time>
      </trkpt>
      <trkpt lat="63.47414" lon="19.15251">
        <ele>128.234439</ele>
        <time>2020-10-02T09:37:54.601Z</time>
      </trkpt>
      <trkpt lat="63.47247" lon="19.14865">
        <ele>118.373399</ele>
        <time>2020-10-02T09:38:34.623Z</time>
      </trkpt>
      <trkpt lat="63.47033" lon="19.14475">
        <ele>108.946703</ele>
        <time>2020-10-02T09:39:14.576Z</time>
      </trkpt>
      <trkpt lat="63.46981" lon="19.1399">
        <ele>109.797163</ele>
        <time>2020-10-02T09:40:02.585Z</time>
      </trkpt>
      <trkpt lat="63.46877" lon="19.13599">
        <ele>111.111306</ele>
        <time>2020-10-02T09:40:56.617Z</time>
      </trkpt>
      <trkpt lat="63.46771" lon="19.13213">
        <ele>115.575856</ele>
        <time>2020-10-02T09:42:09.609Z</time>
      </trkpt>
      <trkpt lat="63.46755" lon="19.12775">
        <ele>119.651946</ele>
        <time>2020-10-02T09:43:37.613Z</time>
      </trkpt>
      <trkpt lat="63.46821" lon="19.12361">
        <ele>120.810459</ele>
        <time>2020-10-02T09:44:58.588Z</time>
      </trkpt>
      <trkpt lat="63.46844" lon="19.11782">
        <ele>113.666215</ele>
        <time>2020-10-02T09:45:44.592Z</time>
      </trkpt>
      <trkpt lat="63.46768" lon="19.11334">
        <ele>116.850764</ele>
        <time>2020-10-02T09:46:40.610Z</time>
      </trkpt>
      <trkpt lat="63.46707" lon="19.10905">
        <ele>132.247977</ele>
        <time>2020-10-02T09:48:22.603Z</time>
      </trkpt>
      <trkpt lat="63.46659" lon="19.10473">
        <ele>134.721057</ele>
        <time>2020-10-02T09:49:49.582Z</time>
      </trkpt>
      <trkpt lat="63.46584" lon="19.10034">
        <ele>132.146147</ele>
        <time>2020-10-02T09:51:06.642Z</time>
      </trkpt>
      <trkpt lat="63.46507" lon="19.09584">
        <ele>129.013603</ele>
        <time>2020-10-02T09:51:59.603Z</time>
      </trkpt>
      <trkpt lat="63.46427" lon="19.09106">
        <ele>130.222967</ele>
        <time>2020-10-02T09:52:58.587Z</time>
      </trkpt>
      <trkpt lat="63.46388" lon="19.08665">
        <ele>132.909381</ele>
        <time>2020-10-02T09:53:53.611Z</time>
      </trkpt>
      <trkpt lat="63.46296" lon="19.08236">
        <ele>135.079058</ele>
        <time>2020-10-02T09:55:05.605Z</time>
      </trkpt>
      <trkpt lat="63.46218" lon="19.07772">
        <ele>140.407316</ele>
        <time>2020-10-02T09:56:09.599Z</time>
      </trkpt>
      <trkpt lat="63.46062" lon="19.0733">
        <ele>126.463925</ele>
        <time>2020-10-02T09:56:49.622Z</time>
      </trkpt>
      <trkpt lat="63.45844" lon="19.07538">
        <ele>119.203352</ele>
        <time>2020-10-02T09:57:35.594Z</time>
      </trkpt>
      <trkpt lat="63.45635" lon="19.07718">
        <ele>119.955341</ele>
        <time>2020-10-02T09:58:23.590Z</time>
      </trkpt>
      <trkpt lat="63.45434" lon="19.07747">
        <ele>125.114742</ele>
        <time>2020-10-02T09:59:15.582Z</time>
      </trkpt>
      <trkpt lat="63.45207" lon="19.07907">
        <ele>124.367134</ele>
        <time>2020-10-02T10:00:27.587Z</time>
      </trkpt>
      <trkpt lat="63.44921" lon="19.08046">
        <ele>117.94776</ele>
        <time>2020-10-02T10:01:09.586Z</time>
      </trkpt>
      <trkpt lat="63.4474" lon="19.08251">
        <ele>113.373386</ele>
        <time>2020-10-02T10:01:49.601Z</time>
      </trkpt>
      <trkpt lat="63.44537" lon="19.08389">
        <ele>115.083584</ele>
        <time>2020-10-02T10:02:33.591Z</time>
      </trkpt>
      <trkpt lat="63.44415" lon="19.0881">
        <ele>115.641017</ele>
        <time>2020-10-02T10:03:30.619Z</time>
      </trkpt>
      <trkpt lat="63.44202" lon="19.08936">
        <ele>109.490979</ele>
        <time>2020-10-02T10:04:24.607Z</time>
      </trkpt>
      <trkpt lat="63.43978" lon="19.08909">
        <ele>105.507031</ele>
        <time>2020-10-02T10:05:26.606Z</time>
      </trkpt>
      <trkpt lat="63.4382" lon="19.09187">
        <ele>112.171861</ele>
        <time>2020-10-02T10:06:49.623Z</time>
      </trkpt>
      <trkpt lat="63.43632" lon="19.09426">
        <ele>108.398883</ele>
        <time>2020-10-02T10:07:30.583Z</time>
      </trkpt>
      <trkpt lat="63.43442" lon="19.09701">
        <ele>108.003315</ele>
        <time>2020-10-02T10:08:21.591Z</time>
      </trkpt>
      <trkpt lat="63.43345" lon="19.10127">
        <ele>110.960373</ele>
        <time>2020-10-02T10:09:12.589Z</time>
      </trkpt>
      <trkpt lat="63.43173" lon="19.10404">
        <ele>103.96257</ele>
        <time>2020-10-02T10:10:02.608Z</time>
      </trkpt>
      <trkpt lat="63.42956" lon="19.10516">
        <ele>110.6766</ele>
        <time>2020-10-02T10:10:51.590Z</time>
      </trkpt>
      <trkpt lat="63.42743" lon="19.10438">
        <ele>104.479466</ele>
        <time>2020-10-02T10:11:36.645Z</time>
      </trkpt>
      <trkpt lat="63.42527" lon="19.10377">
        <ele>106.357768</ele>
        <time>2020-10-02T10:12:32.606Z</time>
      </trkpt>
      <trkpt lat="63.42316" lon="19.10346">
        <ele>110.730671</ele>
        <time>2020-10-02T10:13:29.582Z</time>
      </trkpt>
      <trkpt lat="63.42083" lon="19.1043">
        <ele>100.970888</ele>
        <time>2020-10-02T10:14:14.597Z</time>
      </trkpt>
      <trkpt lat="63.41887" lon="19.1062">
        <ele>91.061405</ele>
        <time>2020-10-02T10:14:54.597Z</time>
      </trkpt>
      <trkpt lat="63.41668" lon="19.10776">
        <ele>94.180421</ele>
        <time>2020-10-02T10:15:36.605Z</time>
      </trkpt>
      <trkpt lat="63.41458" lon="19.10838">
        <ele>99.848151</ele>
        <time>2020-10-02T10:16:50.582Z</time>
      </trkpt>
      <trkpt lat="63.41233" lon="19.10958">
        <ele>93.702482</ele>
        <time>2020-10-02T10:38:10.911Z</time>
      </trkpt>
      <trkpt lat="63.41074" lon="19.11244">
        <ele>93.773797</ele>
        <time>2020-10-02T10:39:16.920Z</time>
      </trkpt>
      <trkpt lat="63.40862" lon="19.11481">
        <ele>87.906477</ele>
        <time>2020-10-02T10:39:57.919Z</time>
      </trkpt>
      <trkpt lat="63.40688" lon="19.11927">
        <ele>78.544759</ele>
        <time>2020-10-02T10:40:37.931Z</time>
      </trkpt>
      <trkpt lat="63.40489" lon="19.12293">
        <ele>75.584518</ele>
        <time>2020-10-02T10:41:17.894Z</time>
      </trkpt>
      <trkpt lat="63.403" lon="19.1238">
        <ele>93.644941</ele>
        <time>2020-10-02T10:43:01.906Z</time>
      </trkpt>
      <trkpt lat="63.40153" lon="19.12667">
        <ele>103.240755</ele>
        <time>2020-10-02T10:44:58.941Z</time>
      </trkpt>
      <trkpt lat="63.39943" lon="19.12714">
        <ele>95.168597</ele>
        <time>2020-10-02T10:45:38.907Z</time>
      </trkpt>
      <trkpt lat="63.39722" lon="19.12821">
        <ele>76.364222</ele>
        <time>2020-10-02T10:46:32.907Z</time>
      </trkpt>
      <trkpt lat="63.3951" lon="19.12838">
        <ele>81.260933</ele>
        <time>2020-10-02T10:47:36.826Z</time>
      </trkpt>
      <trkpt lat="63.39294" lon="19.12965">
        <ele>85.958334</ele>
        <time>2020-10-02T10:48:46.809Z</time>
      </trkpt>
      <trkpt lat="63.39086" lon="19.13143">
        <ele>82.066892</ele>
        <time>2020-10-02T10:49:46.800Z</time>
      </trkpt>
      <trkpt lat="63.38843" lon="19.13255">
        <ele>79.417689</ele>
        <time>2020-10-02T10:50:31.787Z</time>
      </trkpt>
      <trkpt lat="63.3864" lon="19.13515">
        <ele>72.294581</ele>
        <time>2020-10-02T10:51:11.807Z</time>
      </trkpt>
      <trkpt lat="63.38422" lon="19.13597">
        <ele>85.269689</ele>
        <time>2020-10-02T10:52:17.826Z</time>
      </trkpt>
      <trkpt lat="63.38201" lon="19.13637">
        <ele>77.561779</ele>
        <time>2020-10-02T10:53:05.823Z</time>
      </trkpt>
      <trkpt lat="63.37996" lon="19.137">
        <ele>74.741568</ele>
        <time>2020-10-02T10:54:05.815Z</time>
      </trkpt>
      <trkpt lat="63.37786" lon="19.13761">
        <ele>76.074017</ele>
        <time>2020-10-02T10:54:59.812Z</time>
      </trkpt>
      <trkpt lat="63.37561" lon="19.1368">
        <ele>81.895137</ele>
        <time>2020-10-02T10:55:44.813Z</time>
      </trkpt>
      <trkpt lat="63.37348" lon="19.13898">
        <ele>85.317863</ele>
        <time>2020-10-02T10:56:53.813Z</time>
      </trkpt>
      <trkpt lat="63.37128" lon="19.1394">
        <ele>77.317523</ele>
        <time>2020-10-02T10:57:42.815Z</time>
      </trkpt>
      <trkpt lat="63.36893" lon="19.13867">
        <ele>74.152653</ele>
        <time>2020-10-02T10:58:39.835Z</time>
      </trkpt>
      <trkpt lat="63.36676" lon="19.13957">
        <ele>76.5079</ele>
        <time>2020-10-02T10:59:37.791Z</time>
      </trkpt>
      <trkpt lat="63.36475" lon="19.14137">
        <ele>78.816711</ele>
        <time>2020-10-02T11:00:31.791Z</time>
      </trkpt>
      <trkpt lat="63.36272" lon="19.14347">
        <ele>81.359432</ele>
        <time>2020-10-02T11:01:37.795Z</time>
      </trkpt>
      <trkpt lat="63.36094" lon="19.14638">
        <ele>78.974657</ele>
        <time>2020-10-02T11:02:29.842Z</time>
      </trkpt>
      <trkpt lat="63.35894" lon="19.14734">
        <ele>84.923809</ele>
        <time>2020-10-02T11:03:26.812Z</time>
      </trkpt>
      <trkpt lat="63.35655" lon="19.14922">
        <ele>81.279522</ele>
        <time>2020-10-02T11:04:07.803Z</time>
      </trkpt>
      <trkpt lat="63.35432" lon="19.15256">
        <ele>64.511503</ele>
        <time>2020-10-02T11:04:54.812Z</time>
      </trkpt>
      <trkpt lat="63.35246" lon="19.15304">
        <ele>59.425401</ele>
        <time>2020-10-02T11:05:39.803Z</time>
      </trkpt>
      <trkpt lat="63.35075" lon="19.14933">
        <ele>65.812643</ele>
        <time>2020-10-02T11:06:33.816Z</time>
      </trkpt>
      <trkpt lat="63.3492" lon="19.15091">
        <ele>51.219713</ele>
        <time>2020-10-02T11:07:25.795Z</time>
      </trkpt>
      <trkpt lat="63.34711" lon="19.15312">
        <ele>48.296554</ele>
        <time>2020-10-02T11:08:06.797Z</time>
      </trkpt>
      <trkpt lat="63.34465" lon="19.15427">
        <ele>43.356113</ele>
        <time>2020-10-02T11:08:46.828Z</time>
      </trkpt>
      <trkpt lat="63.34271" lon="19.15638">
        <ele>34.64787</ele>
        <time>2020-10-02T11:09:31.809Z</time>
      </trkpt>
      <trkpt lat="63.34122" lon="19.1604">
        <ele>33.948427</ele>
        <time>2020-10-02T11:10:14.816Z</time>
      </trkpt>
      <trkpt lat="63.34046" lon="19.16171">
        <ele>27.207888</ele>
        <time>2020-10-02T11:46:42.764Z</time>
      </trkpt>
      <trkpt lat="63.33917" lon="19.16398">
        <ele>31.656377</ele>
        <time>2020-10-02T11:47:42.765Z</time>
      </trkpt>
      <trkpt lat="63.33819" lon="19.16023">
        <ele>35.65342</ele>
        <time>2020-10-02T11:48:23.775Z</time>
      </trkpt>
      <trkpt lat="63.33614" lon="19.15975">
        <ele>42.250445</ele>
        <time>2020-10-02T11:49:27.766Z</time>
      </trkpt>
      <trkpt lat="63.33518" lon="19.15688">
        <ele>40.259152</ele>
        <time>2020-10-02T11:50:57.802Z</time>
      </trkpt>
      <trkpt lat="63.33441" lon="19.15683">
        <ele>38.809781</ele>
        <time>2020-10-02T11:51:56.787Z</time>
      </trkpt>
      <trkpt lat="63.33585" lon="19.15756">
        <ele>45.216072</ele>
        <time>2020-10-02T11:52:59.783Z</time>
      </trkpt>
      <trkpt lat="63.33514" lon="19.15377">
        <ele>53.106658</ele>
        <time>2020-10-02T11:54:35.768Z</time>
      </trkpt>
      <trkpt lat="63.33517" lon="19.14812">
        <ele>48.786582</ele>
        <time>2020-10-02T11:55:21.764Z</time>
      </trkpt>
      <trkpt lat="63.33423" lon="19.14345">
        <ele>42.762586</ele>
        <time>2020-10-02T11:56:01.804Z</time>
      </trkpt>
      <trkpt lat="63.33359" lon="19.13832">
        <ele>35.484882</ele>
        <time>2020-10-02T11:56:41.770Z</time>
      </trkpt>
      <trkpt lat="63.3342" lon="19.13536">
        <ele>33.845223</ele>
        <time>2020-10-02T11:57:55.778Z</time>
      </trkpt>
      <trkpt lat="63.33633" lon="19.13373">
        <ele>33.914379</ele>
        <time>2020-10-02T11:58:45.787Z</time>
      </trkpt>
      <trkpt lat="63.33837" lon="19.13056">
        <ele>33.14268</ele>
        <time>2020-10-02T11:59:31.771Z</time>
      </trkpt>
      <trkpt lat="63.34028" lon="19.12899">
        <ele>40.233114</ele>
        <time>2020-10-02T12:00:50.762Z</time>
      </trkpt>
      <trkpt lat="63.33867" lon="19.12641">
        <ele>50.85743</ele>
        <time>2020-10-02T12:02:15.785Z</time>
      </trkpt>
      <trkpt lat="63.33771" lon="19.12239">
        <ele>43.381924</ele>
        <time>2020-10-02T12:03:19.795Z</time>
      </trkpt>
      <trkpt lat="63.33843" lon="19.12629">
        <ele>45.123555</ele>
        <time>2020-10-02T12:09:01.773Z</time>
      </trkpt>
      <trkpt lat="63.34029" lon="19.12879">
        <ele>41.319575</ele>
        <time>2020-10-02T12:09:47.776Z</time>
      </trkpt>
      <trkpt lat="63.3422" lon="19.12893">
        <ele>42.963173</ele>
        <time>2020-10-02T12:11:02.772Z</time>
      </trkpt>
      <trkpt lat="63.34401" lon="19.12655">
        <ele>42.278433</ele>
        <time>2020-10-02T12:11:59.782Z</time>
      </trkpt>
      <trkpt lat="63.34433" lon="19.12239">
        <ele>44.013277</ele>
        <time>2020-10-02T12:13:33.788Z</time>
      </trkpt>
      <trkpt lat="63.34364" lon="19.11833">
        <ele>46.015615</ele>
        <time>2020-10-02T12:14:13.801Z</time>
      </trkpt>
      <trkpt lat="63.34239" lon="19.11408">
        <ele>46.443636</ele>
        <time>2020-10-02T12:14:53.774Z</time>
      </trkpt>
      <trkpt lat="63.34067" lon="19.11288">
        <ele>43.041118</ele>
        <time>2020-10-02T12:15:52.801Z</time>
      </trkpt>
      <trkpt lat="63.33959" lon="19.11673">
        <ele>35.160973</ele>
        <time>2020-10-02T12:16:32.794Z</time>
      </trkpt>
      <trkpt lat="63.33739" lon="19.11765">
        <ele>37.845047</ele>
        <time>2020-10-02T12:17:15.797Z</time>
      </trkpt>
      <trkpt lat="63.33508" lon="19.12054">
        <ele>38.384077</ele>
        <time>2020-10-02T12:17:55.809Z</time>
      </trkpt>
      <trkpt lat="63.33331" lon="19.12338">
        <ele>44.457449</ele>
        <time>2020-10-02T12:18:35.783Z</time>
      </trkpt>
      <trkpt lat="63.33168" lon="19.12617">
        <ele>32.043969</ele>
        <time>2020-10-02T12:19:18.808Z</time>
      </trkpt>
      <trkpt lat="63.33004" lon="19.12881">
        <ele>25.508671</ele>
        <time>2020-10-02T12:20:00.795Z</time>
      </trkpt>
      <trkpt lat="63.32816" lon="19.12896">
        <ele>34.962187</ele>
        <time>2020-10-02T12:21:07.776Z</time>
      </trkpt>
      <trkpt lat="63.32613" lon="19.12779">
        <ele>37.174644</ele>
        <time>2020-10-02T12:21:51.791Z</time>
      </trkpt>
      <trkpt lat="63.32403" lon="19.12667">
        <ele>32.47716</ele>
        <time>2020-10-02T12:22:42.813Z</time>
      </trkpt>
      <trkpt lat="63.32222" lon="19.12424">
        <ele>34.07703</ele>
        <time>2020-10-02T12:23:33.763Z</time>
      </trkpt>
      <trkpt lat="63.32175" lon="19.11923">
        <ele>35.799649</ele>
        <time>2020-10-02T12:24:26.839Z</time>
      </trkpt>
      <trkpt lat="63.3215" lon="19.11423">
        <ele>37.425222</ele>
        <time>2020-10-02T12:25:12.817Z</time>
      </trkpt>
      <trkpt lat="63.32145" lon="19.10947">
        <ele>37.248982</ele>
        <time>2020-10-02T12:25:58.804Z</time>
      </trkpt>
      <trkpt lat="63.32145" lon="19.10561">
        <ele>55.515179</ele>
        <time>2020-10-02T12:27:47.796Z</time>
      </trkpt>
      <trkpt lat="63.3204" lon="19.10195">
        <ele>63.479282</ele>
        <time>2020-10-02T12:29:10.797Z</time>
      </trkpt>
      <trkpt lat="63.31928" lon="19.09813">
        <ele>62.113696</ele>
        <time>2020-10-02T12:30:20.851Z</time>
      </trkpt>
      <trkpt lat="63.31762" lon="19.09561">
        <ele>55.274187</ele>
        <time>2020-10-02T12:31:07.779Z</time>
      </trkpt>
      <trkpt lat="63.3156" lon="19.09448">
        <ele>57.581859</ele>
        <time>2020-10-02T12:31:56.805Z</time>
      </trkpt>
      <trkpt lat="63.31361" lon="19.09333">
        <ele>71.835474</ele>
        <time>2020-10-02T12:33:22.783Z</time>
      </trkpt>
      <trkpt lat="63.31167" lon="19.09189">
        <ele>69.071432</ele>
        <time>2020-10-02T12:34:30.811Z</time>
      </trkpt>
      <trkpt lat="63.30944" lon="19.0885">
        <ele>60.841206</ele>
        <time>2020-10-02T12:35:10.799Z</time>
      </trkpt>
      <trkpt lat="63.3073" lon="19.08684">
        <ele>51.365413</ele>
        <time>2020-10-02T12:35:50.781Z</time>
      </trkpt>
      <trkpt lat="63.30525" lon="19.08678">
        <ele>50.253969</ele>
        <time>2020-10-02T12:36:31.786Z</time>
      </trkpt>
      <trkpt lat="63.30303" lon="19.08663">
        <ele>44.154267</ele>
        <time>2020-10-02T12:37:18.787Z</time>
      </trkpt>
      <trkpt lat="63.30083" lon="19.08473">
        <ele>45.712402</ele>
        <time>2020-10-02T12:37:58.792Z</time>
      </trkpt>
      <trkpt lat="63.29955" lon="19.08051">
        <ele>52.418226</ele>
        <time>2020-10-02T12:38:40.804Z</time>
      </trkpt>
      <trkpt lat="63.29862" lon="19.07564">
        <ele>52.276443</ele>
        <time>2020-10-02T12:39:23.819Z</time>
      </trkpt>
      <trkpt lat="63.29626" lon="19.07517">
        <ele>58.580943</ele>
        <time>2020-10-02T12:40:14.799Z</time>
      </trkpt>
      <trkpt lat="63.29403" lon="19.07447">
        <ele>70.476756</ele>
        <time>2020-10-02T12:41:09.796Z</time>
      </trkpt>
      <trkpt lat="63.29177" lon="19.07475">
        <ele>73.832149</ele>
        <time>2020-10-02T12:42:00.798Z</time>
      </trkpt>
      <trkpt lat="63.28962" lon="19.07488">
        <ele>52.720251</ele>
        <time>2020-10-02T12:42:41.784Z</time>
      </trkpt>
      <trkpt lat="63.28806" lon="19.07218">
        <ele>49.637792</ele>
        <time>2020-10-02T12:43:24.785Z</time>
      </trkpt>
      <trkpt lat="63.2866" lon="19.06833">
        <ele>55.509167</ele>
        <time>2020-10-02T12:44:20.825Z</time>
      </trkpt>
      <trkpt lat="63.28516" lon="19.06426">
        <ele>62.205361</ele>
        <time>2020-10-02T12:45:20.806Z</time>
      </trkpt>
      <trkpt lat="63.28462" lon="19.05962">
        <ele>61.502521</ele>
        <time>2020-10-02T12:46:12.798Z</time>
      </trkpt>
      <trkpt lat="63.28485" lon="19.05493">
        <ele>69.46694</ele>
        <time>2020-10-02T12:47:06.796Z</time>
      </trkpt>
      <trkpt lat="63.285" lon="19.04945">
        <ele>68.178809</ele>
        <time>2020-10-02T12:47:50.781Z</time>
      </trkpt>
      <trkpt lat="63.28486" lon="19.04361">
        <ele>50.169433</ele>
        <time>2020-10-02T12:48:21.808Z</time>
      </trkpt>
      <trkpt lat="63.28333" lon="19.03814">
        <ele>37.109817</ele>
        <time>2020-10-02T12:49:01.796Z</time>
      </trkpt>
      <trkpt lat="63.28084" lon="19.03456">
        <ele>28.222174</ele>
        <time>2020-10-02T12:49:39.797Z</time>
      </trkpt>
      <trkpt lat="63.27874" lon="19.03402">
        <ele>28.531418</ele>
        <time>2020-10-02T12:50:22.797Z</time>
      </trkpt>
      <trkpt lat="63.27639" lon="19.03485">
        <ele>57.380687</ele>
        <time>2020-10-02T12:51:25.860Z</time>
      </trkpt>
      <trkpt lat="63.27433" lon="19.03479">
        <ele>36.545163</ele>
        <time>2020-10-02T12:52:35.802Z</time>
      </trkpt>
      <trkpt lat="63.27227" lon="19.03482">
        <ele>45.356889</ele>
        <time>2020-10-02T12:53:36.790Z</time>
      </trkpt>
      <trkpt lat="63.27036" lon="19.03322">
        <ele>47.834496</ele>
        <time>2020-10-02T12:54:34.781Z</time>
      </trkpt>
      <trkpt lat="63.26837" lon="19.03041">
        <ele>39.338965</ele>
        <time>2020-10-02T12:55:16.788Z</time>
      </trkpt>
      <trkpt lat="63.26655" lon="19.02785">
        <ele>43.806491</ele>
        <time>2020-10-02T12:56:10.796Z</time>
      </trkpt>
      <trkpt lat="63.26461" lon="19.02528">
        <ele>47.255577</ele>
        <time>2020-10-02T12:57:09.800Z</time>
      </trkpt>
      <trkpt lat="63.26268" lon="19.02497">
        <ele>31.734915</ele>
        <time>2020-10-02T12:57:29.780Z</time>
      </trkpt>
      <trkpt lat="63.26044" lon="19.02326">
        <ele>27.932249</ele>
        <time>2020-10-02T12:57:58.785Z</time>
      </trkpt>
      <trkpt lat="63.25834" lon="19.02231">
        <ele>42.927306</ele>
        <time>2020-10-02T12:59:03.824Z</time>
      </trkpt>
      <trkpt lat="63.25632" lon="19.02162">
        <ele>47.988724</ele>
        <time>2020-10-02T13:00:09.797Z</time>
      </trkpt>
      <trkpt lat="63.25512" lon="19.01875">
        <ele>54.611348</ele>
        <time>2020-10-02T13:01:17.788Z</time>
      </trkpt>
      <trkpt lat="63.25505" lon="19.01412">
        <ele>60.340967</ele>
        <time>2020-10-02T13:02:26.780Z</time>
      </trkpt>
      <trkpt lat="63.25515" lon="19.00964">
        <ele>66.391865</ele>
        <time>2020-10-02T13:03:52.794Z</time>
      </trkpt>
      <trkpt lat="63.25404" lon="19.0053">
        <ele>54.735913</ele>
        <time>2020-10-02T13:04:35.795Z</time>
      </trkpt>
      <trkpt lat="63.2522" lon="19.00389">
        <ele>40.653963</ele>
        <time>2020-10-02T13:04:55.836Z</time>
      </trkpt>
      <trkpt lat="63.25023" lon="19.00255">
        <ele>49.726998</ele>
        <time>2020-10-02T13:06:00.788Z</time>
      </trkpt>
      <trkpt lat="63.24979" lon="18.99778">
        <ele>57.275339</ele>
        <time>2020-10-02T13:07:13.785Z</time>
      </trkpt>
      <trkpt lat="63.24949" lon="18.99314">
        <ele>59.991997</ele>
        <time>2020-10-02T13:08:11.833Z</time>
      </trkpt>
      <trkpt lat="63.24793" lon="18.98893">
        <ele>48.253004</ele>
        <time>2020-10-02T13:08:51.798Z</time>
      </trkpt>
      <trkpt lat="63.24684" lon="18.98497">
        <ele>46.627338</ele>
        <time>2020-10-02T13:09:41.828Z</time>
      </trkpt>
      <trkpt lat="63.24565" lon="18.98013">
        <ele>44.721951</ele>
        <time>2020-10-02T13:10:21.803Z</time>
      </trkpt>
      <trkpt lat="63.24425" lon="18.97481">
        <ele>39.202416</ele>
        <time>2020-10-02T13:11:01.808Z</time>
      </trkpt>
      <trkpt lat="63.24378" lon="18.96873">
        <ele>35.851089</ele>
        <time>2020-10-02T13:11:40.806Z</time>
      </trkpt>
      <trkpt lat="63.24306" lon="18.96376">
        <ele>31.167029</ele>
        <time>2020-10-02T13:12:20.785Z</time>
      </trkpt>
      <trkpt lat="63.24195" lon="18.95944">
        <ele>35.148917</ele>
        <time>2020-10-02T13:13:09.784Z</time>
      </trkpt>
      <trkpt lat="63.24197" lon="18.95502">
        <ele>50.609989</ele>
        <time>2020-10-02T13:14:36.805Z</time>
      </trkpt>
      <trkpt lat="63.2421" lon="18.95052">
        <ele>59.763412</ele>
        <time>2020-10-02T13:16:03.794Z</time>
      </trkpt>
      <trkpt lat="63.24401" lon="18.95001">
        <ele>59.560628</ele>
        <time>2020-10-02T13:17:13.799Z</time>
      </trkpt>
      <trkpt lat="63.24621" lon="18.95146">
        <ele>53.509762</ele>
        <time>2020-10-02T13:18:03.811Z</time>
      </trkpt>
      <trkpt lat="63.24836" lon="18.95344">
        <ele>53.289861</ele>
        <time>2020-10-02T13:18:59.808Z</time>
      </trkpt>
      <trkpt lat="63.25037" lon="18.95357">
        <ele>62.651512</ele>
        <time>2020-10-02T13:20:01.793Z</time>
      </trkpt>
      <trkpt lat="63.2517" lon="18.95004">
        <ele>73.431595</ele>
        <time>2020-10-02T13:21:30.800Z</time>
      </trkpt>
      <trkpt lat="63.25324" lon="18.94698">
        <ele>68.109054</ele>
        <time>2020-10-02T13:22:53.820Z</time>
      </trkpt>
      <trkpt lat="63.25579" lon="18.94344">
        <ele>56.760555</ele>
        <time>2020-10-02T13:23:33.803Z</time>
      </trkpt>
      <trkpt lat="63.25784" lon="18.94048">
        <ele>53.817717</ele>
        <time>2020-10-02T13:24:13.787Z</time>
      </trkpt>
      <trkpt lat="63.25895" lon="18.93718">
        <ele>54.021476</ele>
        <time>2020-10-02T13:24:53.795Z</time>
      </trkpt>
      <trkpt lat="63.25989" lon="18.93247">
        <ele>52.052632</ele>
        <time>2020-10-02T13:25:38.817Z</time>
      </trkpt>
      <trkpt lat="63.26151" lon="18.92861">
        <ele>46.745728</ele>
        <time>2020-10-02T13:26:18.813Z</time>
      </trkpt>
      <trkpt lat="63.2637" lon="18.92765">
        <ele>45.521349</ele>
        <time>2020-10-02T13:26:58.818Z</time>
      </trkpt>
      <trkpt lat="63.26601" lon="18.92637">
        <ele>47.287459</ele>
        <time>2020-10-02T13:27:38.828Z</time>
      </trkpt>
      <trkpt lat="63.26816" lon="18.92462">
        <ele>53.901751</ele>
        <time>2020-10-02T13:28:32.794Z</time>
      </trkpt>
      <trkpt lat="63.27027" lon="18.92416">
        <ele>47.956396</ele>
        <time>2020-10-02T13:29:15.800Z</time>
      </trkpt>
      <trkpt lat="63.27234" lon="18.9255">
        <ele>40.589315</ele>
        <time>2020-10-02T13:30:09.783Z</time>
      </trkpt>
      <trkpt lat="63.27442" lon="18.9266">
        <ele>39.483685</ele>
        <time>2020-10-02T13:30:49.810Z</time>
      </trkpt>
      <trkpt lat="63.27635" lon="18.92448">
        <ele>36.02853</ele>
        <time>2020-10-02T13:31:33.802Z</time>
      </trkpt>
      <trkpt lat="63.27775" lon="18.92134">
        <ele>39.86143</ele>
        <time>2020-10-02T13:32:22.808Z</time>
      </trkpt>
      <trkpt lat="63.27893" lon="18.91778">
        <ele>53.218141</ele>
        <time>2020-10-02T13:34:03.836Z</time>
      </trkpt>
      <trkpt lat="63.28076" lon="18.91556">
        <ele>57.947171</ele>
        <time>2020-10-02T13:35:26.797Z</time>
      </trkpt>
      <trkpt lat="63.28212" lon="18.91098">
        <ele>48.180371</ele>
        <time>2020-10-02T13:36:06.824Z</time>
      </trkpt>
      <trkpt lat="63.283" lon="18.90679">
        <ele>58.244466</ele>
        <time>2020-10-02T13:37:23.814Z</time>
      </trkpt>
      <trkpt lat="63.28459" lon="18.90377">
        <ele>63.790806</ele>
        <time>2020-10-02T13:38:33.800Z</time>
      </trkpt>
      <trkpt lat="63.28656" lon="18.90037">
        <ele>55.887277</ele>
        <time>2020-10-02T13:39:15.799Z</time>
      </trkpt>
      <trkpt lat="63.28917" lon="18.89767">
        <ele>49.305299</ele>
        <time>2020-10-02T13:39:57.795Z</time>
      </trkpt>
      <trkpt lat="63.29178" lon="18.89393">
        <ele>40.418685</ele>
        <time>2020-10-02T13:40:37.812Z</time>
      </trkpt>
      <trkpt lat="63.29385" lon="18.89093">
        <ele>38.371251</ele>
        <time>2020-10-02T13:41:17.818Z</time>
      </trkpt>
      <trkpt lat="63.29597" lon="18.88802">
        <ele>36.954608</ele>
        <time>2020-10-02T13:41:57.798Z</time>
      </trkpt>
      <trkpt lat="63.29639" lon="18.88727">
        <ele>38.173804</ele>
        <time>2020-10-02T13:45:08.799Z</time>
      </trkpt>
      <trkpt lat="63.29498" lon="18.8857">
        <ele>38.401931</ele>
        <time>2020-10-02T13:46:15.796Z</time>
      </trkpt>
      <trkpt lat="63.29424" lon="18.88123">
        <ele>38.778528</ele>
        <time>2020-10-02T13:47:10.795Z</time>
      </trkpt>
      <trkpt lat="63.29473" lon="18.87668">
        <ele>41.540253</ele>
        <time>2020-10-02T13:48:19.793Z</time>
      </trkpt>
      <trkpt lat="63.29624" lon="18.87265">
        <ele>36.252803</ele>
        <time>2020-10-02T13:48:59.816Z</time>
      </trkpt>
      <trkpt lat="63.29747" lon="18.86761">
        <ele>24.421713</ele>
        <time>2020-10-02T13:49:41.790Z</time>
      </trkpt>
      <trkpt lat="63.29572" lon="18.86326">
        <ele>13.642032</ele>
        <time>2020-10-02T13:50:21.822Z</time>
      </trkpt>
      <trkpt lat="63.29414" lon="18.86045">
        <ele>20.966457</ele>
        <time>2020-10-02T13:51:11.808Z</time>
      </trkpt>
      <trkpt lat="63.29201" lon="18.85894">
        <ele>23.676903</ele>
        <time>2020-10-02T13:52:11.824Z</time>
      </trkpt>
      <trkpt lat="63.29151" lon="18.85458">
        <ele>21.991873</ele>
        <time>2020-10-02T13:52:52.784Z</time>
      </trkpt>
      <trkpt lat="63.29177" lon="18.84924">
        <ele>20.806719</ele>
        <time>2020-10-02T13:53:32.796Z</time>
      </trkpt>
      <trkpt lat="63.29026" lon="18.84657">
        <ele>26.72444</ele>
        <time>2020-10-02T13:54:20.797Z</time>
      </trkpt>
      <trkpt lat="63.2882" lon="18.8464">
        <ele>36.279289</ele>
        <time>2020-10-02T13:55:50.819Z</time>
      </trkpt>
      <trkpt lat="63.28755" lon="18.84163">
        <ele>29.270817</ele>
        <time>2020-10-02T13:56:39.846Z</time>
      </trkpt>
      <trkpt lat="63.28837" lon="18.83562">
        <ele>23.391641</ele>
        <time>2020-10-02T13:57:19.805Z</time>
      </trkpt>
      <trkpt lat="63.28915" lon="18.83007">
        <ele>23.006332</ele>
        <time>2020-10-02T13:57:59.826Z</time>
      </trkpt>
      <trkpt lat="63.28947" lon="18.82517">
        <ele>24.398709</ele>
        <time>2020-10-02T13:58:40.843Z</time>
      </trkpt>
      <trkpt lat="63.2901" lon="18.82038">
        <ele>28.531866</ele>
        <time>2020-10-02T13:59:40.802Z</time>
      </trkpt>
      <trkpt lat="63.2888" lon="18.81737">
        <ele>26.253153</ele>
        <time>2020-10-02T14:00:26.813Z</time>
      </trkpt>
      <trkpt lat="63.2863" lon="18.817">
        <ele>25.276615</ele>
        <time>2020-10-02T14:01:11.852Z</time>
      </trkpt>
      <trkpt lat="63.28409" lon="18.81643">
        <ele>29.731917</ele>
        <time>2020-10-02T14:02:15.813Z</time>
      </trkpt>
      <trkpt lat="63.28149" lon="18.81598">
        <ele>27.884576</ele>
        <time>2020-10-02T14:02:59.815Z</time>
      </trkpt>
      <trkpt lat="63.2793" lon="18.81596">
        <ele>42.172132</ele>
        <time>2020-10-02T14:04:28.812Z</time>
      </trkpt>
      <trkpt lat="63.27781" lon="18.81314">
        <ele>44.035862</ele>
        <time>2020-10-02T14:05:36.806Z</time>
      </trkpt>
      <trkpt lat="63.27592" lon="18.80948">
        <ele>35.107531</ele>
        <time>2020-10-02T14:06:19.824Z</time>
      </trkpt>
      <trkpt lat="63.27381" lon="18.80908">
        <ele>43.583161</ele>
        <time>2020-10-02T14:07:22.804Z</time>
      </trkpt>
      <trkpt lat="63.27204" lon="18.80739">
        <ele>37.700649</ele>
        <time>2020-10-02T14:08:10.807Z</time>
      </trkpt>
      <trkpt lat="63.26925" lon="18.80957">
        <ele>17.178495</ele>
        <time>2020-10-02T14:08:50.816Z</time>
      </trkpt>
      <trkpt lat="63.26808" lon="18.8063">
        <ele>17.846038</ele>
        <time>2020-10-02T14:09:37.807Z</time>
      </trkpt>
      <trkpt lat="63.26623" lon="18.80723">
        <ele>20.640934</ele>
        <time>2020-10-02T14:10:19.832Z</time>
      </trkpt>
      <trkpt lat="63.26443" lon="18.80674">
        <ele>22.550818</ele>
        <time>2020-10-02T14:11:01.813Z</time>
      </trkpt>
      <trkpt lat="63.26229" lon="18.80652">
        <ele>31.343399</ele>
        <time>2020-10-02T14:12:10.808Z</time>
      </trkpt>
      <trkpt lat="63.26033" lon="18.80801">
        <ele>35.899648</ele>
        <time>2020-10-02T14:13:25.821Z</time>
      </trkpt>
      <trkpt lat="63.25806" lon="18.80925">
        <ele>31.093336</ele>
        <time>2020-10-02T14:14:16.803Z</time>
      </trkpt>
      <trkpt lat="63.25659" lon="18.81146">
        <ele>45.015369</ele>
        <time>2020-10-02T14:16:23.839Z</time>
      </trkpt>
    </trkseg>
  </trk>
</gpx>